Time;durP1;ratioP1;P1;durP2;ratioP2;P2;SDS_P1;SDS_P2;PMS_P1;PMS_P2;Temp;Humidity;BMP_temperature;BMP_pressure;BME280_temperature;BME280_humidity;BME280_pressure;Samples;Min_cycle;Max_cycle;Signal;HPM_P1;HPM_P2
2023/03/12 00:00:32;;;;;;;14.35;7.43;;;;;;;;;;5080630;28;20757;-57
2023/03/12 00:02:58;;;;;;;12.30;7.32;;;;;;;;;;5078548;28;20537;-58
2023/03/12 00:05:24;;;;;;;11.85;6.15;;;;;;;;;;5078463;28;20052;-58
2023/03/12 00:07:51;;;;;;;13.20;7.30;;;;;;;;;;5069895;28;20139;-58
2023/03/12 00:10:17;;;;;;;11.38;5.93;;;;;;;;;;5078083;28;20045;-58
2023/03/12 00:12:44;;;;;;;13.85;7.70;;;;;;;;;;5075277;28;20498;-57
2023/03/12 00:15:10;;;;;;;10.32;6.45;;;;;;;;;;5078554;28;20087;-58
2023/03/12 00:17:36;;;;;;;10.35;5.68;;;;;;;;;;5070271;27;20056;-57
2023/03/12 00:20:04;;;;;;;11.52;6.05;;;;;;;;;;5080638;28;20458;-57
2023/03/12 00:22:30;;;;;;;11.40;5.60;;;;;;;;;;5083168;28;20041;-58
2023/03/12 00:24:56;;;;;;;12.35;6.22;;;;;;;;;;5083172;28;20087;-58
2023/03/12 00:27:23;;;;;;;6.68;4.10;;;;;;;;;;5081756;28;20087;-58
2023/03/12 00:29:49;;;;;;;8.85;5.40;;;;;;;;;;5081531;28;20041;-57
2023/03/12 00:32:15;;;;;;;14.23;5.75;;;;;;;;;;5081868;28;20044;-57
2023/03/12 00:34:41;;;;;;;14.07;6.88;;;;;;;;;;5082053;28;20554;-57
2023/03/12 00:37:07;;;;;;;14.68;6.13;;;;;;;;;;5082992;28;20130;-57
2023/03/12 00:39:34;;;;;;;10.60;5.05;;;;;;;;;;5080669;28;20040;-57
2023/03/12 00:42:00;;;;;;;17.73;5.97;;;;;;;;;;5080980;27;20048;-57
2023/03/12 00:44:26;;;;;;;10.00;5.05;;;;;;;;;;5082786;28;20528;-57
2023/03/12 00:46:52;;;;;;;11.00;4.38;;;;;;;;;;5081461;28;20138;-58
2023/03/12 00:49:19;;;;;;;7.03;4.85;;;;;;;;;;5084948;28;20040;-57
2023/03/12 00:51:45;;;;;;;11.02;5.57;;;;;;;;;;5084550;28;20138;-57
2023/03/12 00:54:11;;;;;;;11.40;5.95;;;;;;;;;;5081738;28;20565;-57
2023/03/12 00:56:37;;;;;;;15.18;5.75;;;;;;;;;;5079071;28;20086;-58
2023/03/12 00:59:03;;;;;;;11.65;4.45;;;;;;;;;;5082444;28;20043;-57
2023/03/12 01:01:29;;;;;;;9.13;5.25;;;;;;;;;;5078161;28;20048;-57
2023/03/12 01:03:57;;;;;;;8.90;4.70;;;;;;;;;;5083239;28;20045;-58
2023/03/12 01:06:23;;;;;;;11.90;6.28;;;;;;;;;;5083077;28;21390;-57
2023/03/12 01:08:49;;;;;;;10.65;5.18;;;;;;;;;;5079549;28;20517;-59
2023/03/12 01:11:16;;;;;;;13.70;5.13;;;;;;;;;;5077838;28;22698;-58
2023/03/12 01:13:42;;;;;;;11.65;5.65;;;;;;;;;;5074786;28;20103;-58
2023/03/12 01:16:09;;;;;;;8.07;4.15;;;;;;;;;;5080657;28;20062;-58
2023/03/12 01:18:35;;;;;;;6.85;3.72;;;;;;;;;;5080569;27;20202;-57
2023/03/12 01:21:01;;;;;;;8.13;3.78;;;;;;;;;;5082735;28;20051;-58
2023/03/12 01:23:27;;;;;;;7.38;4.18;;;;;;;;;;5082007;28;20044;-58
2023/03/12 01:25:54;;;;;;;8.00;4.47;;;;;;;;;;5077847;28;21883;-58
2023/03/12 01:28:21;;;;;;;6.35;3.47;;;;;;;;;;5079864;28;20095;-57
2023/03/12 01:30:47;;;;;;;6.10;3.30;;;;;;;;;;5080153;28;20043;-57
2023/03/12 01:33:13;;;;;;;5.88;3.38;;;;;;;;;;5082388;28;20041;-58
2023/03/12 01:35:39;;;;;;;7.60;3.53;;;;;;;;;;5081559;28;20283;-58
2023/03/12 01:38:11;;;;;;;8.13;3.63;;;;;;;;;;5082108;28;20045;-58
2023/03/12 01:40:37;;;;;;;8.90;3.67;;;;;;;;;;5077533;28;20047;-57
2023/03/12 01:43:24;;;;;;;8.85;3.42;;;;;;;;;;5079148;28;20037;-57
2023/03/12 01:45:59;;;;;;;8.82;3.58;;;;;;;;;;5082866;28;20528;-58
2023/03/12 01:48:27;;;;;;;15.73;3.63;;;;;;;;;;5081659;28;20589;-58
2023/03/12 01:50:53;;;;;;;6.05;3.35;;;;;;;;;;5074600;28;20695;-57
2023/03/12 01:53:19;;;;;;;9.05;2.95;;;;;;;;;;5082544;28;20048;-58
2023/03/12 01:55:45;;;;;;;10.20;4.38;;;;;;;;;;5079857;28;20505;-58
2023/03/12 01:58:11;;;;;;;8.15;3.38;;;;;;;;;;5082203;28;20040;-57
2023/03/12 02:00:37;;;;;;;11.00;3.75;;;;;;;;;;5083293;28;20050;-58
2023/03/12 02:03:06;;;;;;;12.57;4.15;;;;;;;;;;5080098;28;20115;-57
2023/03/12 02:05:53;;;;;;;12.57;3.20;;;;;;;;;;5081464;28;20040;-58
2023/03/12 02:08:20;;;;;;;4.22;2.67;;;;;;;;;;5082485;28;20106;-58
2023/03/12 02:10:46;;;;;;;16.48;3.45;;;;;;;;;;5081386;28;20453;-58
2023/03/12 02:13:12;;;;;;;9.32;3.15;;;;;;;;;;5082081;28;20047;-58
2023/03/12 02:15:39;;;;;;;9.80;5.72;;;;;;;;;;5081452;28;20595;-57
2023/03/12 02:18:06;;;;;;;10.68;3.58;;;;;;;;;;5079575;28;20040;-57
2023/03/12 02:20:43;;;;;;;11.93;3.92;;;;;;;;;;5079861;28;20044;-57
2023/03/12 02:23:12;;;;;;;7.22;3.72;;;;;;;;;;5081228;28;20219;-58
2023/03/12 02:25:40;;;;;;;14.20;5.25;;;;;;;;;;5079527;28;20048;-58
2023/03/12 02:28:08;;;;;;;9.43;3.53;;;;;;;;;;5080855;28;20037;-57
2023/03/12 02:30:35;;;;;;;10.20;4.07;;;;;;;;;;5082179;28;20069;-57
2023/03/12 02:33:02;;;;;;;7.60;3.28;;;;;;;;;;5082828;28;20045;-58
2023/03/12 02:35:28;;;;;;;16.25;5.28;;;;;;;;;;5078768;28;20089;-58
2023/03/12 02:37:55;;;;;;;9.38;3.70;;;;;;;;;;5081117;28;20581;-58
2023/03/12 02:40:24;;;;;;;12.77;3.55;;;;;;;;;;5079625;27;20086;-58
2023/03/12 02:42:51;;;;;;;11.15;4.10;;;;;;;;;;5080419;28;20037;-57
2023/03/12 02:45:17;;;;;;;12.18;4.35;;;;;;;;;;5081110;28;20048;-57
2023/03/12 02:47:44;;;;;;;19.40;5.60;;;;;;;;;;5077244;28;20122;-58
2023/03/12 02:50:10;;;;;;;11.10;4.03;;;;;;;;;;5081124;28;20048;-58
2023/03/12 02:52:37;;;;;;;11.70;5.45;;;;;;;;;;5079544;28;20143;-58
2023/03/12 02:55:03;;;;;;;12.07;5.60;;;;;;;;;;5080691;28;20040;-58
2023/03/12 02:57:29;;;;;;;14.25;5.15;;;;;;;;;;5078968;28;20064;-58
2023/03/12 02:59:56;;;;;;;11.27;4.75;;;;;;;;;;5078997;28;20043;-58
2023/03/12 03:02:23;;;;;;;17.02;4.90;;;;;;;;;;5081212;28;20102;-58
2023/03/12 03:04:52;;;;;;;12.63;5.47;;;;;;;;;;5079025;28;20553;-58
2023/03/12 03:07:18;;;;;;;13.48;4.90;;;;;;;;;;5082200;28;20102;-58
2023/03/12 03:09:44;;;;;;;16.35;4.93;;;;;;;;;;5080746;28;20361;-58
2023/03/12 03:12:10;;;;;;;18.80;5.15;;;;;;;;;;5081914;28;20041;-58
2023/03/12 03:14:36;;;;;;;17.77;5.70;;;;;;;;;;5080350;28;20077;-58
2023/03/12 03:17:02;;;;;;;17.17;6.32;;;;;;;;;;5081209;28;20054;-58
2023/03/12 03:19:28;;;;;;;23.17;6.32;;;;;;;;;;5078392;28;20508;-58
2023/03/12 03:21:54;;;;;;;13.95;5.07;;;;;;;;;;5081971;28;20501;-59
2023/03/12 03:24:21;;;;;;;15.23;4.95;;;;;;;;;;5082685;28;20044;-58
2023/03/12 03:26:47;;;;;;;17.10;6.25;;;;;;;;;;5079874;28;20067;-58
2023/03/12 03:29:13;;;;;;;19.25;7.03;;;;;;;;;;5080437;28;20153;-58
2023/03/12 03:31:39;;;;;;;21.95;5.22;;;;;;;;;;5079777;28;20561;-58
2023/03/12 03:34:05;;;;;;;22.65;5.80;;;;;;;;;;5080742;28;20106;-58
2023/03/12 03:36:32;;;;;;;15.05;6.32;;;;;;;;;;5081208;28;20109;-58
2023/03/12 03:38:58;;;;;;;18.20;5.78;;;;;;;;;;5082508;28;20040;-58
2023/03/12 03:41:55;;;;;;;23.80;5.78;;;;;;;;;;5078872;28;20119;-58
2023/03/12 03:44:21;;;;;;;17.48;6.25;;;;;;;;;;5078571;28;20513;-58
2023/03/12 03:46:48;;;;;;;17.65;5.55;;;;;;;;;;5080882;28;20040;-58
2023/03/12 03:49:15;;;;;;;15.43;6.57;;;;;;;;;;5078395;27;20700;-58
2023/03/12 03:51:41;;;;;;;17.58;5.57;;;;;;;;;;5078804;28;20068;-58
2023/03/12 03:54:08;;;;;;;10.75;4.97;;;;;;;;;;5079579;28;20040;-58
2023/03/12 03:56:34;;;;;;;16.95;5.63;;;;;;;;;;5077629;28;20044;-58
2023/03/12 03:59:00;;;;;;;21.90;6.90;;;;;;;;;;5077007;28;20099;-58
2023/03/12 04:01:27;;;;;;;18.90;6.95;;;;;;;;;;5078005;28;20131;-58
2023/03/12 04:03:53;;;;;;;26.42;6.53;;;;;;;;;;5078717;28;20077;-58
2023/03/12 04:06:19;;;;;;;21.92;6.13;;;;;;;;;;5078761;28;20040;-58
2023/03/12 04:08:45;;;;;;;26.38;6.60;;;;;;;;;;5079357;28;20051;-58
2023/03/12 04:11:13;;;;;;;21.55;6.53;;;;;;;;;;5079907;28;20194;-58
2023/03/12 04:13:39;;;;;;;15.98;6.15;;;;;;;;;;5079815;28;20049;-58
2023/03/12 04:16:06;;;;;;;25.77;7.05;;;;;;;;;;5078675;28;20055;-58
2023/03/12 04:18:32;;;;;;;22.52;6.20;;;;;;;;;;5077480;28;20044;-58
2023/03/12 04:20:58;;;;;;;15.50;5.50;;;;;;;;;;5079018;28;20045;-58
2023/03/12 04:23:25;;;;;;;24.58;6.20;;;;;;;;;;5080079;28;20549;-58
2023/03/12 04:25:51;;;;;;;26.75;5.28;;;;;;;;;;5077755;28;20629;-58
2023/03/12 04:28:17;;;;;;;24.88;6.57;;;;;;;;;;5078740;28;20552;-58
2023/03/12 04:30:43;;;;;;;23.35;7.57;;;;;;;;;;5078664;28;20047;-58
2023/03/12 04:33:09;;;;;;;22.90;5.85;;;;;;;;;;5078615;28;20201;-58
2023/03/12 04:35:35;;;;;;;18.38;4.35;;;;;;;;;;5079781;28;20032;-58
2023/03/12 04:38:02;;;;;;;20.58;4.28;;;;;;;;;;5077010;28;20036;-58
2023/03/12 04:40:29;;;;;;;17.27;7.65;;;;;;;;;;5079814;28;20386;-58
2023/03/12 04:42:55;;;;;;;31.25;9.70;;;;;;;;;;5080240;28;20038;-58
2023/03/12 04:45:21;;;;;;;22.98;9.52;;;;;;;;;;5081331;28;20955;-58
2023/03/12 04:47:47;;;;;;;23.77;7.70;;;;;;;;;;5078581;28;20048;-58
2023/03/12 04:50:13;;;;;;;16.60;5.70;;;;;;;;;;5074391;28;20076;-58
2023/03/12 04:52:39;;;;;;;29.15;7.70;;;;;;;;;;5078799;28;20040;-58
2023/03/12 04:55:06;;;;;;;26.88;7.18;;;;;;;;;;5078138;28;20055;-58
2023/03/12 04:57:32;;;;;;;22.73;6.15;;;;;;;;;;5078376;28;20029;-58
2023/03/12 04:59:58;;;;;;;22.40;6.10;;;;;;;;;;5078450;28;20048;-58
2023/03/12 05:02:24;;;;;;;31.15;5.43;;;;;;;;;;5078114;28;20055;-58
2023/03/12 05:04:50;;;;;;;15.02;4.93;;;;;;;;;;5081403;28;20040;-58
2023/03/12 05:07:16;;;;;;;27.95;5.28;;;;;;;;;;5082781;28;20071;-58
2023/03/12 05:09:43;;;;;;;19.42;4.75;;;;;;;;;;5082603;28;20105;-58
2023/03/12 05:12:09;;;;;;;23.58;5.88;;;;;;;;;;5080095;28;20097;-58
2023/03/12 05:14:38;;;;;;;17.13;4.10;;;;;;;;;;5081549;28;20044;-58
2023/03/12 05:17:04;;;;;;;23.20;4.75;;;;;;;;;;5080503;28;20053;-58
2023/03/12 05:19:31;;;;;;;7.57;3.70;;;;;;;;;;5080492;28;20124;-58
2023/03/12 05:21:58;;;;;;;22.33;7.03;;;;;;;;;;5082805;28;22040;-58
2023/03/12 05:24:24;;;;;;;24.50;6.93;;;;;;;;;;5082402;28;20051;-58
2023/03/12 05:26:50;;;;;;;25.95;6.05;;;;;;;;;;5079374;28;20079;-57
2023/03/12 05:29:16;;;;;;;35.25;5.32;;;;;;;;;;5082695;28;20044;-58
2023/03/12 05:31:42;;;;;;;22.58;6.65;;;;;;;;;;5080481;28;20047;-58
2023/03/12 05:34:10;;;;;;;21.60;5.20;;;;;;;;;;5081397;28;20033;-58
2023/03/12 05:36:36;;;;;;;23.02;6.88;;;;;;;;;;5080794;28;20524;-58
2023/03/12 05:39:02;;;;;;;33.10;9.57;;;;;;;;;;5080311;28;20608;-58
2023/03/12 05:41:29;;;;;;;23.02;5.57;;;;;;;;;;5081912;28;20048;-58
2023/03/12 05:43:56;;;;;;;19.75;4.45;;;;;;;;;;5080171;28;20039;-58
2023/03/12 05:46:23;;;;;;;14.32;3.97;;;;;;;;;;5082983;27;20040;-58
2023/03/12 05:48:49;;;;;;;29.30;6.82;;;;;;;;;;5078389;28;20041;-58
2023/03/12 05:51:15;;;;;;;24.38;5.90;;;;;;;;;;5080679;28;20036;-58
2023/03/12 05:53:41;;;;;;;30.10;8.40;;;;;;;;;;5080357;28;20044;-58
2023/03/12 05:56:08;;;;;;;21.10;5.25;;;;;;;;;;5082202;28;20068;-58
2023/03/12 05:58:36;;;;;;;33.70;5.78;;;;;;;;;;5079717;27;20044;-58
2023/03/12 06:01:03;;;;;;;21.88;4.20;;;;;;;;;;5078509;28;20044;-58
2023/03/12 06:03:30;;;;;;;24.15;5.85;;;;;;;;;;5079520;28;20052;-58
2023/03/12 06:05:56;;;;;;;27.48;7.35;;;;;;;;;;5081074;28;20524;-58
2023/03/12 06:08:23;;;;;;;20.85;6.03;;;;;;;;;;5081694;28;20976;-58
2023/03/12 06:10:53;;;;;;;19.83;8.48;;;;;;;;;;5082842;27;20044;-58
2023/03/12 06:13:21;;;;;;;22.45;8.18;;;;;;;;;;5079176;28;20522;-58
2023/03/12 06:15:47;;;;;;;19.05;6.80;;;;;;;;;;5079635;28;20138;-58
2023/03/12 06:18:13;;;;;;;18.73;4.78;;;;;;;;;;5080563;28;20102;-60
2023/03/12 06:20:39;;;;;;;21.88;4.75;;;;;;;;;;5080828;28;20044;-58
2023/03/12 06:23:06;;;;;;;21.92;5.25;;;;;;;;;;5082305;28;20033;-58
2023/03/12 06:25:32;;;;;;;28.60;8.55;;;;;;;;;;5081731;28;20146;-59
2023/03/12 06:27:58;;;;;;;21.10;6.72;;;;;;;;;;5081789;28;20171;-58
2023/03/12 06:30:25;;;;;;;29.17;9.48;;;;;;;;;;5082059;28;20044;-58
2023/03/12 06:32:51;;;;;;;29.60;8.15;;;;;;;;;;5081906;28;20357;-58
2023/03/12 06:35:18;;;;;;;26.98;6.40;;;;;;;;;;5083530;28;20517;-58
2023/03/12 06:37:44;;;;;;;26.40;6.13;;;;;;;;;;5081996;28;20143;-58
2023/03/12 06:40:11;;;;;;;39.80;7.70;;;;;;;;;;5080910;28;20131;-59
2023/03/12 06:42:38;;;;;;;16.67;5.70;;;;;;;;;;5080572;28;20062;-58
2023/03/12 06:45:04;;;;;;;24.17;5.93;;;;;;;;;;5079711;28;20059;-58
2023/03/12 06:47:30;;;;;;;22.15;6.53;;;;;;;;;;5079026;28;20063;-58
2023/03/12 06:49:56;;;;;;;27.88;7.38;;;;;;;;;;5079662;28;20596;-58
2023/03/12 06:52:22;;;;;;;34.00;8.90;;;;;;;;;;5079679;28;20120;-58
2023/03/12 06:54:48;;;;;;;27.98;7.30;;;;;;;;;;5082389;28;20130;-58
2023/03/12 06:57:15;;;;;;;22.40;6.28;;;;;;;;;;5081906;28;21001;-58
2023/03/12 06:59:41;;;;;;;22.88;6.25;;;;;;;;;;5080380;28;20047;-58
2023/03/12 07:02:10;;;;;;;20.77;5.82;;;;;;;;;;5079007;28;20703;-58
2023/03/12 07:04:36;;;;;;;27.23;8.57;;;;;;;;;;5078874;28;20036;-57
2023/03/12 07:07:03;;;;;;;17.45;4.57;;;;;;;;;;5081908;28;20037;-58
2023/03/12 07:09:29;;;;;;;26.10;6.38;;;;;;;;;;5080482;28;20513;-58
2023/03/12 07:11:56;;;;;;;36.95;8.35;;;;;;;;;;5080853;28;20036;-58
2023/03/12 07:14:22;;;;;;;21.42;8.95;;;;;;;;;;5077680;28;20589;-58
2023/03/12 07:16:48;;;;;;;29.00;6.97;;;;;;;;;;5074926;28;20554;-58
2023/03/12 07:19:14;;;;;;;28.77;9.23;;;;;;;;;;5079208;28;20032;-58
2023/03/12 07:21:40;;;;;;;29.63;8.77;;;;;;;;;;5078216;28;20036;-58
2023/03/12 07:24:07;;;;;;;22.92;5.38;;;;;;;;;;5074696;28;20425;-58
2023/03/12 07:26:34;;;;;;;24.90;7.95;;;;;;;;;;5077616;28;20094;-58
2023/03/12 07:29:00;;;;;;;20.30;5.18;;;;;;;;;;5077949;28;20040;-58
2023/03/12 07:31:26;;;;;;;17.55;6.40;;;;;;;;;;5079957;28;20112;-58
2023/03/12 07:33:52;;;;;;;20.90;5.57;;;;;;;;;;5070746;28;20040;-58
2023/03/12 07:36:18;;;;;;;28.50;8.98;;;;;;;;;;5069538;28;20040;-58
2023/03/12 07:38:44;;;;;;;22.15;5.88;;;;;;;;;;5073298;27;20342;-58
2023/03/12 07:41:11;;;;;;;20.88;6.95;;;;;;;;;;5078086;28;20046;-58
2023/03/12 07:43:37;;;;;;;30.17;5.07;;;;;;;;;;5073306;28;20048;-58
2023/03/12 07:46:03;;;;;;;26.35;6.97;;;;;;;;;;5072068;28;20044;-58
2023/03/12 07:48:29;;;;;;;20.98;6.28;;;;;;;;;;5077757;28;20098;-58
2023/03/12 07:50:55;;;;;;;8.52;2.83;;;;;;;;;;5077850;28;20090;-58
2023/03/12 07:53:21;;;;;;;23.35;5.88;;;;;;;;;;5078659;28;20045;-58
2023/03/12 07:55:47;;;;;;;16.92;5.43;;;;;;;;;;5075264;28;20066;-58
2023/03/12 07:58:14;;;;;;;16.65;6.40;;;;;;;;;;5079096;28;20101;-58
2023/03/12 08:00:40;;;;;;;23.90;7.28;;;;;;;;;;5075942;28;20112;-58
2023/03/12 08:03:06;;;;;;;19.38;7.22;;;;;;;;;;5078010;28;20075;-58
2023/03/12 08:05:32;;;;;;;22.20;6.65;;;;;;;;;;5079397;27;20143;-58
2023/03/12 08:07:59;;;;;;;28.95;6.35;;;;;;;;;;5078189;28;20053;-57
2023/03/12 08:10:25;;;;;;;30.70;8.95;;;;;;;;;;5077540;28;20044;-58
2023/03/12 08:12:51;;;;;;;24.55;6.43;;;;;;;;;;5073946;28;20051;-58
2023/03/12 08:15:17;;;;;;;26.63;9.57;;;;;;;;;;5076651;28;20605;-58
2023/03/12 08:17:43;;;;;;;32.10;6.35;;;;;;;;;;5075267;28;20048;-58
2023/03/12 08:20:09;;;;;;;27.83;7.65;;;;;;;;;;5067982;28;20445;-58
2023/03/12 08:22:36;;;;;;;23.15;7.35;;;;;;;;;;5072783;28;20547;-58
2023/03/12 08:25:03;;;;;;;18.13;4.38;;;;;;;;;;5073620;28;20115;-58
2023/03/12 08:27:29;;;;;;;23.08;9.75;;;;;;;;;;5074027;28;20075;-58
2023/03/12 08:29:55;;;;;;;34.53;6.68;;;;;;;;;;5075938;28;20044;-58
2023/03/12 08:32:21;;;;;;;25.30;6.80;;;;;;;;;;5072911;28;20134;-58
2023/03/12 08:34:47;;;;;;;25.67;7.28;;;;;;;;;;5072652;28;20493;-58
2023/03/12 08:37:13;;;;;;;26.13;7.03;;;;;;;;;;5074276;28;20093;-58
2023/03/12 08:39:39;;;;;;;22.60;5.97;;;;;;;;;;5076421;27;20047;-58
2023/03/12 08:42:06;;;;;;;25.45;8.32;;;;;;;;;;5079221;28;20079;-58
2023/03/12 08:44:32;;;;;;;33.00;8.05;;;;;;;;;;5080825;28;20048;-58
2023/03/12 08:46:59;;;;;;;25.02;6.20;;;;;;;;;;5075561;28;20047;-58
2023/03/12 08:49:25;;;;;;;25.45;6.90;;;;;;;;;;5080574;28;20047;-58
2023/03/12 08:51:51;;;;;;;22.77;5.60;;;;;;;;;;5080404;28;20046;-58
2023/03/12 08:54:17;;;;;;;26.75;6.07;;;;;;;;;;5080672;28;20048;-58
2023/03/12 08:56:45;;;;;;;15.82;4.70;;;;;;;;;;5080489;28;20503;-58
2023/03/12 08:59:11;;;;;;;24.30;6.35;;;;;;;;;;5080620;28;20040;-58
2023/03/12 09:01:38;;;;;;;17.42;6.03;;;;;;;;;;5075883;28;20041;-60
2023/03/12 09:04:05;;;;;;;25.92;7.88;;;;;;;;;;5074545;28;20580;-59
2023/03/12 09:06:32;;;;;;;22.30;5.75;;;;;;;;;;5079042;28;20290;-59
2023/03/12 09:09:03;;;;;;;29.90;7.80;;;;;;;;;;5079783;28;20063;-59
2023/03/12 09:11:30;;;;;;;14.65;5.53;;;;;;;;;;5080099;28;20946;-60
2023/03/12 09:13:56;;;;;;;34.65;7.65;;;;;;;;;;5079770;28;20067;-59
2023/03/12 09:16:22;;;;;;;27.80;7.50;;;;;;;;;;5078359;28;20048;-58
2023/03/12 09:18:48;;;;;;;26.67;8.75;;;;;;;;;;5080686;28;20049;-58
2023/03/12 09:21:14;;;;;;;26.00;8.50;;;;;;;;;;5077978;28;20504;-59
2023/03/12 09:23:40;;;;;;;25.00;7.38;;;;;;;;;;5080988;28;20040;-59
2023/03/12 09:26:09;;;;;;;22.23;5.97;;;;;;;;;;5078050;28;20040;-59
2023/03/12 09:28:35;;;;;;;25.40;6.95;;;;;;;;;;5078169;28;20071;-58
2023/03/12 09:31:02;;;;;;;29.65;7.22;;;;;;;;;;5077145;28;20041;-58
2023/03/12 09:33:28;;;;;;;19.88;6.97;;;;;;;;;;5074690;28;20161;-59
2023/03/12 09:35:58;;;;;;;30.60;9.93;;;;;;;;;;5072427;28;20040;-59
2023/03/12 09:38:24;;;;;;;20.35;7.03;;;;;;;;;;5079650;28;20043;-58
2023/03/12 09:40:50;;;;;;;15.90;7.68;;;;;;;;;;5077778;28;20136;-58
2023/03/12 09:43:28;;;;;;;23.00;5.15;;;;;;;;;;5078932;28;20045;-58
2023/03/12 09:45:54;;;;;;;15.70;5.25;;;;;;;;;;5077767;28;20161;-58
2023/03/12 09:48:46;;;;;;;21.98;5.63;;;;;;;;;;5080556;27;20033;-58
2023/03/12 09:51:17;;;;;;;18.25;5.70;;;;;;;;;;5074675;28;20052;-59
2023/03/12 09:54:09;;;;;;;20.50;4.90;;;;;;;;;;5075720;28;20769;-58
2023/03/12 09:56:35;;;;;;;28.92;8.45;;;;;;;;;;5067982;27;20568;-59
2023/03/12 09:59:01;;;;;;;19.63;4.95;;;;;;;;;;5074673;28;20044;-58
2023/03/12 10:01:40;;;;;;;20.15;6.45;;;;;;;;;;5075710;28;20502;-58
2023/03/12 10:04:12;;;;;;;26.75;6.43;;;;;;;;;;5078121;28;20965;-59
2023/03/12 10:07:02;;;;;;;27.63;4.85;;;;;;;;;;5075151;28;20041;-59
2023/03/12 10:09:52;;;;;;;23.10;5.80;;;;;;;;;;5071361;28;20051;-58
2023/03/12 10:12:34;;;;;;;21.27;5.35;;;;;;;;;;5077823;27;20124;-58
2023/03/12 10:15:15;;;;;;;32.95;9.15;;;;;;;;;;5068983;28;20094;-58
2023/03/12 10:17:53;;;;;;;22.33;5.97;;;;;;;;;;5070902;28;20044;-59
2023/03/12 10:20:31;;;;;;;12.85;6.07;;;;;;;;;;5072552;28;20076;-58
2023/03/12 10:23:01;;;;;;;13.02;4.15;;;;;;;;;;5071329;28;20040;-58
2023/03/12 10:25:45;;;;;;;17.58;5.28;;;;;;;;;;5073827;28;20083;-58
2023/03/12 10:28:19;;;;;;;21.27;6.55;;;;;;;;;;5073122;28;20710;-58
2023/03/12 10:30:55;;;;;;;16.75;5.10;;;;;;;;;;5068009;28;20056;-59
2023/03/12 10:33:24;;;;;;;18.83;6.32;;;;;;;;;;5073211;28;20057;-59
2023/03/12 10:35:51;;;;;;;14.80;5.10;;;;;;;;;;5074812;28;20095;-59
2023/03/12 10:38:19;;;;;;;20.83;4.88;;;;;;;;;;5077426;28;20179;-58
2023/03/12 10:40:47;;;;;;;20.20;5.63;;;;;;;;;;5074105;28;20059;-58
2023/03/12 10:43:13;;;;;;;17.80;4.45;;;;;;;;;;5072582;28;20220;-58
2023/03/12 10:45:57;;;;;;;18.25;5.57;;;;;;;;;;5071647;28;20247;-59
2023/03/12 10:48:25;;;;;;;14.05;4.00;;;;;;;;;;5073062;28;20037;-58
2023/03/12 10:51:02;;;;;;;18.27;4.55;;;;;;;;;;5073869;28;20048;-59
2023/03/12 10:53:31;;;;;;;20.02;5.95;;;;;;;;;;5076081;28;20093;-58
2023/03/12 10:56:01;;;;;;;14.60;4.53;;;;;;;;;;5068468;28;20546;-58
2023/03/12 10:58:31;;;;;;;16.63;5.00;;;;;;;;;;5069049;28;20057;-58
2023/03/12 11:00:58;;;;;;;16.75;3.78;;;;;;;;;;5071669;28;20239;-59
2023/03/12 11:03:24;;;;;;;26.25;7.30;;;;;;;;;;5074111;28;21122;-58
2023/03/12 11:05:55;;;;;;;14.57;3.45;;;;;;;;;;5073413;28;20816;-59
2023/03/12 11:08:23;;;;;;;14.98;4.38;;;;;;;;;;5075154;28;20733;-59
2023/03/12 11:10:49;;;;;;;14.50;4.43;;;;;;;;;;5077307;28;20029;-59
2023/03/12 11:13:34;;;;;;;19.65;5.18;;;;;;;;;;5077922;28;20052;-59
2023/03/12 11:16:01;;;;;;;22.45;4.28;;;;;;;;;;5068662;28;20475;-59
2023/03/12 11:18:33;;;;;;;16.98;5.95;;;;;;;;;;5073726;28;20059;-58
2023/03/12 11:20:59;;;;;;;;;;;;;;;;;;5077168;28;20087;-59
2023/03/12 11:23:29;;;;;;;16.15;4.40;;;;;;;;;;5076550;28;19920;-59
2023/03/12 11:25:58;;;;;;;16.85;4.70;;;;;;;;;;5075862;28;20055;-59
2023/03/12 11:28:27;;;;;;;15.60;3.50;;;;;;;;;;5073177;28;20085;-59
2023/03/12 11:30:57;;;;;;;12.98;4.65;;;;;;;;;;5075898;28;20041;-59
2023/03/12 11:33:23;;;;;;;19.20;6.22;;;;;;;;;;5075765;28;21100;-59
2023/03/12 11:35:55;;;;;;;19.63;5.07;;;;;;;;;;5066844;28;20055;-58
2023/03/12 11:38:21;;;;;;;;;;;;;;;;;;5070060;28;20048;-59
2023/03/12 11:41:12;;;;;;;17.90;4.47;;;;;;;;;;5073219;28;19974;-59
2023/03/12 11:43:56;;;;;;;16.20;4.22;;;;;;;;;;5078895;28;20048;-58
2023/03/12 11:46:22;;;;;;;27.05;4.57;;;;;;;;;;5075895;28;20160;-58
2023/03/12 11:48:48;;;;;;;10.75;3.33;;;;;;;;;;5072605;28;21226;-59
2023/03/12 11:51:34;;;;;;;17.02;4.55;;;;;;;;;;5059665;28;20091;-59
2023/03/12 11:54:15;;;;;;;17.83;5.35;;;;;;;;;;5057493;28;20056;-58
2023/03/12 11:56:41;;;;;;;18.40;4.90;;;;;;;;;;5076700;27;21250;-59
2023/03/12 11:59:10;;;;;;;17.42;4.25;;;;;;;;;;5061356;28;20036;-58
2023/03/12 12:01:55;;;;;;;15.18;4.10;;;;;;;;;;5067523;28;20064;-59
2023/03/12 12:04:24;;;;;;;9.27;3.47;;;;;;;;;;5070344;28;20033;-59
2023/03/12 12:06:57;;;;;;;10.88;3.10;;;;;;;;;;5071710;28;20049;-59
2023/03/12 12:09:23;;;;;;;8.93;3.53;;;;;;;;;;5072146;28;20517;-59
2023/03/12 12:11:55;;;;;;;11.10;2.72;;;;;;;;;;5072467;28;20044;-59
2023/03/12 12:14:21;;;;;;;15.05;4.82;;;;;;;;;;5077878;28;20128;-59
2023/03/12 12:17:07;;;;;;;11.50;4.13;;;;;;;;;;5073402;28;20076;-58
2023/03/12 12:19:33;;;;;;;12.85;4.78;;;;;;;;;;5064269;27;20592;-58
2023/03/12 12:22:05;;;;;;;11.07;3.40;;;;;;;;;;5081830;28;20079;-58
2023/03/12 12:24:46;;;;;;;12.18;4.15;;;;;;;;;;5081047;28;20033;-57
2023/03/12 12:27:20;;;;;;;10.38;3.75;;;;;;;;;;5075868;28;20581;-58
2023/03/12 12:29:58;;;;;;;11.65;4.07;;;;;;;;;;5081817;28;21287;-58
2023/03/12 12:32:48;;;;;;;10.95;3.08;;;;;;;;;;5079950;28;20037;-58
2023/03/12 12:35:23;;;;;;;9.55;3.63;;;;;;;;;;5076606;28;20055;-58
2023/03/12 12:37:52;;;;;;;9.93;4.07;;;;;;;;;;5082104;28;20041;-58
2023/03/12 12:40:36;;;;;;;11.65;5.05;;;;;;;;;;5084737;28;20051;-59
2023/03/12 12:43:06;;;;;;;17.08;5.40;;;;;;;;;;5079495;28;20040;-59
2023/03/12 12:45:32;;;;;;;13.23;4.47;;;;;;;;;;5080883;28;20040;-59
2023/03/12 12:48:03;;;;;;;15.95;4.38;;;;;;;;;;5079622;28;20047;-58
2023/03/12 12:50:32;;;;;;;15.77;6.40;;;;;;;;;;5084124;28;20040;-58
2023/03/12 12:53:21;;;;;;;12.57;4.05;;;;;;;;;;5080817;28;20052;-58
2023/03/12 12:55:54;;;;;;;16.15;3.90;;;;;;;;;;5078762;28;20105;-58
2023/03/12 12:58:25;;;;;;;14.50;5.05;;;;;;;;;;5079594;28;20048;-58
2023/03/12 13:00:55;;;;;;;15.90;3.80;;;;;;;;;;5080151;27;20040;-58
2023/03/12 13:03:23;;;;;;;23.05;5.28;;;;;;;;;;5080843;28;20093;-58
2023/03/12 13:05:52;;;;;;;12.93;3.83;;;;;;;;;;5080888;28;20139;-58
2023/03/12 13:08:37;;;;;;;9.90;4.07;;;;;;;;;;5082663;28;20049;-58
2023/03/12 13:11:22;;;;;;;18.42;5.53;;;;;;;;;;5080736;28;20045;-58
2023/03/12 13:13:50;;;;;;;8.18;3.40;;;;;;;;;;5077234;28;20048;-58
2023/03/12 13:16:18;;;;;;;11.15;3.17;;;;;;;;;;5078820;28;20163;-59
2023/03/12 13:18:58;;;;;;;15.27;3.85;;;;;;;;;;5074255;28;20047;-58
2023/03/12 13:21:28;;;;;;;13.45;3.05;;;;;;;;;;5059542;28;20045;-58
2023/03/12 13:23:57;;;;;;;18.60;6.00;;;;;;;;;;5058237;28;20081;-58
2023/03/12 13:26:23;;;;;;;9.88;3.80;;;;;;;;;;5078838;28;20044;-58
2023/03/12 13:28:52;;;;;;;12.05;3.42;;;;;;;;;;5077246;28;20135;-58
2023/03/12 13:31:28;;;;;;;13.18;4.93;;;;;;;;;;5076766;28;20098;-58
2023/03/12 13:33:57;;;;;;;16.98;6.03;;;;;;;;;;5077384;28;20060;-58
2023/03/12 13:36:24;;;;;;;16.17;4.82;;;;;;;;;;5077601;28;20048;-58
2023/03/12 13:39:17;;;;;;;11.65;4.45;;;;;;;;;;5080202;28;20040;-59
2023/03/12 13:41:46;;;;;;;13.40;3.22;;;;;;;;;;5069075;28;20040;-58
2023/03/12 13:44:31;;;;;;;11.45;3.97;;;;;;;;;;5062506;28;20043;-58
2023/03/12 13:47:04;;;;;;;11.77;4.60;;;;;;;;;;5076061;28;20047;-59
2023/03/12 13:49:35;;;;;;;10.95;3.17;;;;;;;;;;5072241;28;20072;-59
2023/03/12 13:52:01;;;;;;;18.13;3.85;;;;;;;;;;5078991;28;20599;-59
2023/03/12 13:54:32;;;;;;;12.32;4.72;;;;;;;;;;5079289;28;20041;-59
2023/03/12 13:57:19;;;;;;;10.57;2.17;;;;;;;;;;5070755;28;20064;-59
2023/03/12 13:59:45;;;;;;;15.90;4.57;;;;;;;;;;5072385;28;20123;-59
2023/03/12 14:02:20;;;;;;;17.42;3.70;;;;;;;;;;5074247;28;20040;-59
2023/03/12 14:04:46;;;;;;;15.13;5.15;;;;;;;;;;5076033;28;20044;-59
2023/03/12 14:07:13;;;;;;;15.95;5.03;;;;;;;;;;5077165;28;20036;-59
2023/03/12 14:09:57;;;;;;;13.93;4.45;;;;;;;;;;5074082;28;20094;-59
2023/03/12 14:12:46;;;;;;;10.18;4.38;;;;;;;;;;5075592;28;20572;-59
2023/03/12 14:15:29;;;;;;;15.95;4.20;;;;;;;;;;5071112;28;20568;-59
2023/03/12 14:17:55;;;;;;;;;;;;;;;;;;5076237;28;20044;-59
2023/03/12 14:20:22;;;;;;;21.10;7.07;;;;;;;;;;5075530;28;20418;-59
2023/03/12 14:22:53;;;;;;;12.45;3.25;;;;;;;;;;5075982;28;20126;-59
2023/03/12 14:25:19;;;;;;;11.82;5.35;;;;;;;;;;5078437;28;20134;-59
2023/03/12 14:27:46;;;;;;;18.83;5.45;;;;;;;;;;5073733;28;20524;-59
2023/03/12 14:30:19;;;;;;;17.33;4.90;;;;;;;;;;5070832;28;20037;-59
2023/03/12 14:32:46;;;;;;;13.20;5.35;;;;;;;;;;5073415;28;20040;-59
2023/03/12 14:35:18;;;;;;;19.13;5.50;;;;;;;;;;5074461;28;20048;-59
2023/03/12 14:37:44;;;;;;;;;;;;;;;;;;5078384;28;20040;-59
2023/03/12 14:40:22;;;;;;;16.25;5.38;;;;;;;;;;5076113;28;19924;-59
2023/03/12 14:42:48;;;;;;;15.77;4.97;;;;;;;;;;5076000;28;20048;-59